Strona główna
METAR-TAF:

METAR-TAF

Lotnisko :

Port lotniczy Haugesund

Haugesund, Norwegia

Szerokość geograficzna: 59-21N, Długość geograficzna: 005-13E, wysokość: 2 m

Aktualna obserwacja pogody

Raport powstał 28 minut temu, godzina 07:20 UTC
Wiatr 4 kt od północ
Temperatura 10°C
Wilgotność 76%
Ciśnienie 1035 hPa
Widzialność 10 km lub więcej
Mało chmury na wysokości 1500 ft
Rozproszone chmury na wysokości 4400 ft

METAR: ENHD 280720Z 35004KT 9999 FEW015 SCT044 10/06 Q1035

czas: 09:48 (07:48 UTC)

Prognoza

Raport powstał 2 godziny i 48 minut temu, godzina 05:00 UTC
Prognoza ważna od 28 godzina 06 UTC do 28 godzina 15 UTC
Wiatr 8 kt od północno-północny zachód
Widzialność 10 km lub więcej
Mało chmury na wysokości 3000 ft

TAF: ENHD 280500Z 2806/2815 34008KT 9999 FEW030

Obserwacja i prognoza pogody dla ponad 4000 lotnisk (raport METAR i TAF).

Dostępne stacje oznaczono żółtymi i czerwonymi punktami na mapie.

Najedź kursorem aby zobaczyć nazwę stacji.

Kliknij aby zobaczyć obserwacje i prognozy pogody.

Aby zmienić mapę: kliknij na zielony przycisk z czarnym krzyżykiem, aby powiększyć; na zielony przycisk z myślnikiem, aby pomniejszyć; na zielone strzałki, aby przejść do map sąsiednich.


METAR-TAF: